Time;durP1;ratioP1;P1;durP2;ratioP2;P2;SDS_P1;SDS_P2;PMS_P1;PMS_P2;Temp;Humidity;BMP_temperature;BMP_pressure;BME280_temperature;BME280_humidity;BME280_pressure;Samples;Min_cycle;Max_cycle;Signal;HPM_P1;HPM_P2
2022/10/28 00:01:28;;;;;;;0.00;0.00;;;14.70;99.90;14.00;98066.00;;;;5052345;28;20232;-76
2022/10/28 00:04:00;;;;;;;0.00;0.00;;;14.80;99.90;14.00;98039.00;;;;5067841;28;20197;-75
2022/10/28 00:06:32;;;;;;;0.00;0.00;;;14.80;99.90;13.90;98064.00;;;;5052651;28;20201;-77
2022/10/28 00:09:02;;;;;;;0.00;0.00;;;14.80;99.90;14.00;98038.00;;;;5047030;28;20190;-77
2022/10/28 00:11:35;;;;;;;0.00;0.00;;;14.80;99.90;14.10;98037.00;;;;5058513;28;20734;-76
2022/10/28 00:14:06;;;;;;;0.00;0.00;;;14.80;99.90;14.10;98041.00;;;;5057398;28;20190;-76
2022/10/28 00:16:37;;;;;;;0.00;0.00;;;14.90;99.90;14.10;98028.00;;;;5063068;28;20251;-76
2022/10/28 00:19:10;;;;;;;0.00;0.00;;;14.90;99.90;14.10;98024.00;;;;5059009;28;20218;-74
2022/10/28 00:21:40;;;;;;;0.00;0.00;;;14.90;99.90;14.10;98022.00;;;;5059338;28;20275;-77
2022/10/28 00:24:12;;;;;;;0.00;0.00;;;14.90;99.90;14.20;98013.00;;;;5052421;28;20260;-77
2022/10/28 00:26:43;;;;;;;0.00;0.00;;;14.90;99.90;14.30;98035.00;;;;5055242;28;20194;-76
2022/10/28 00:29:15;;;;;;;0.00;0.00;;;15.00;99.90;14.30;97922.00;;;;5048013;28;20207;-76
2022/10/28 00:31:45;;;;;;;0.00;0.00;;;15.10;99.90;14.20;98036.00;;;;5056665;28;20210;-76
2022/10/28 00:34:16;;;;;;;0.00;0.00;;;15.10;99.90;14.40;98034.00;;;;5061953;28;20206;-75
2022/10/28 00:36:46;;;;;;;0.00;0.00;;;15.20;99.90;14.50;98033.00;;;;5062357;28;20669;-75
2022/10/28 00:39:19;;;;;;;0.10;0.10;;;15.20;99.90;14.50;98027.00;;;;5044378;28;20214;-75
2022/10/28 00:41:51;;;;;;;0.00;0.00;;;15.20;99.90;14.40;97967.00;;;;5088050;22;20226;-73
2022/10/28 00:44:57;;;;;;;0.00;0.00;;;15.30;99.90;14.40;98025.00;;;;5067460;28;20616;-73
2022/10/28 00:47:38;;;;;;;0.00;0.00;;;15.20;99.90;14.40;98024.00;;;;5073906;28;20217;-74
2022/10/28 00:50:33;;;;;;;0.00;0.00;;;15.20;99.90;14.40;98021.00;;;;5071936;28;20255;-74
2022/10/28 00:53:07;;;;;;;0.00;0.00;;;15.20;99.90;14.40;98017.00;;;;5048879;28;20698;-73
2022/10/28 00:55:37;;;;;;;0.00;0.00;;;15.20;99.90;14.40;98012.00;;;;5088629;28;20194;-74
2022/10/28 00:58:08;;;;;;;0.00;0.00;;;15.20;99.90;14.40;98003.00;;;;5098208;28;20194;-74
2022/10/28 01:00:36;;;;;;;0.00;0.00;;;15.10;99.90;14.30;98007.00;;;;5079200;28;20222;-73
2022/10/28 01:03:04;;;;;;;0.00;0.00;;;15.10;99.90;14.30;98004.00;;;;5094488;28;20263;-73
2022/10/28 01:05:37;;;;;;;0.00;0.00;;;15.10;99.90;14.30;97992.00;;;;5092024;28;20197;-73
2022/10/28 01:08:06;;;;;;;0.00;0.00;;;15.10;99.90;14.30;97982.00;;;;5097139;28;20197;-73
2022/10/28 01:11:04;;;;;;;0.00;0.00;;;15.00;99.90;14.30;97987.00;;;;5109407;28;20796;-74
2022/10/28 01:13:58;;;;;;;0.00;0.00;;;15.00;99.90;14.20;97985.00;;;;5093643;28;20186;-74
2022/10/28 01:16:41;;;;;;;0.00;0.00;;;15.00;99.90;14.30;97995.00;;;;5079663;28;20205;-74
2022/10/28 01:19:51;;;;;;;0.00;0.00;;;15.00;99.90;14.30;97989.00;;;;5079974;28;20267;-73
2022/10/28 01:22:25;;;;;;;0.00;0.00;;;15.10;99.90;14.30;98006.00;;;;5044094;28;20240;-73
2022/10/28 01:25:36;;;;;;;0.00;0.00;;;15.10;99.90;14.40;97991.00;;;;5073436;28;20687;-74
2022/10/28 01:28:57;;;;;;;0.00;0.00;;;15.10;99.90;14.30;97987.00;;;;5076099;28;20214;-73
2022/10/28 01:31:40;;;;;;;0.00;0.00;;;15.10;99.90;14.40;97981.00;;;;5095270;28;20262;-73
2022/10/28 01:34:19;;;;;;;0.00;0.00;;;15.10;99.90;14.40;97981.00;;;;5081756;28;20206;-73
2022/10/28 01:36:59;;;;;;;0.00;0.00;;;15.20;99.90;14.50;97975.00;;;;5086630;28;20200;-72
2022/10/28 01:39:39;;;;;;;0.00;0.00;;;15.30;99.90;14.60;97976.00;;;;5075008;28;20232;-73
2022/10/28 01:42:20;;;;;;;0.00;0.00;;;15.30;99.90;14.60;97979.00;;;;5089142;28;20616;-73
2022/10/28 01:45:01;;;;;;;0.00;0.00;;;15.40;99.90;14.70;97973.00;;;;5083306;28;20208;-72
2022/10/28 01:47:37;;;;;;;0.05;0.05;;;15.40;99.90;14.60;97972.00;;;;5094650;28;20211;-72
2022/10/28 01:50:12;;;;;;;0.00;0.00;;;15.40;99.90;14.60;97971.00;;;;5096733;28;20712;-72
2022/10/28 01:52:43;;;;;;;0.00;0.00;;;15.40;99.90;14.60;97966.00;;;;5071738;28;20258;-72
2022/10/28 01:55:18;;;;;;;0.00;0.00;;;15.40;99.90;14.40;97968.00;;;;5056713;28;20197;-72
2022/10/28 01:57:48;;;;;;;0.00;0.00;;;15.40;99.90;14.70;97967.00;;;;5074657;28;20197;-72
2022/10/28 02:00:17;;;;;;;0.00;0.00;;;15.40;99.90;14.70;97915.00;;;;5056321;28;20229;-74
2022/10/28 02:02:49;;;;;;;0.00;0.00;;;15.40;99.90;14.70;97911.00;;;;5077517;28;20567;-72
2022/10/28 02:05:44;;;;;;;0.00;0.00;;;15.40;99.90;14.70;97942.00;;;;5074765;28;20189;-73
2022/10/28 02:08:52;;;;;;;0.00;0.00;;;15.40;99.90;14.60;97985.00;;;;5074368;28;20194;-72
2022/10/28 02:11:43;;;;;;;0.00;0.00;;;15.40;99.90;14.60;97969.00;;;;5059362;28;20636;-73
2022/10/28 02:14:33;;;;;;;0.00;0.00;;;15.40;99.90;14.60;97970.00;;;;5074034;28;20202;-73
2022/10/28 02:17:17;;;;;;;0.00;0.00;;;15.30;99.90;14.60;97969.00;;;;5079291;28;20382;-73
2022/10/28 02:19:53;;;;;;;0.00;0.00;;;15.30;99.90;14.50;97961.00;;;;5096099;28;20221;-74
2022/10/28 02:22:29;;;;;;;0.00;0.00;;;15.20;99.90;14.40;97973.00;;;;5076222;28;20699;-73
2022/10/28 02:25:09;;;;;;;0.00;0.00;;;15.20;99.90;14.30;97968.00;;;;5070914;28;20197;-74
2022/10/28 02:27:44;;;;;;;0.00;0.00;;;15.10;99.90;14.30;97981.00;;;;5070873;28;20204;-74
2022/10/28 02:30:19;;;;;;;0.00;0.00;;;15.10;99.90;14.00;97988.00;;;;5055935;28;20204;-74
2022/10/28 02:32:53;;;;;;;0.00;0.00;;;15.00;99.90;14.20;97964.00;;;;5072244;28;20209;-72
2022/10/28 02:35:31;;;;;;;0.00;0.00;;;15.00;99.90;14.20;97977.00;;;;5074427;28;20208;-73
2022/10/28 02:38:05;;;;;;;0.00;0.00;;;14.90;99.90;14.10;97981.00;;;;5074736;28;20722;-72
2022/10/28 02:40:36;;;;;;;0.00;0.00;;;14.90;99.90;14.10;97975.00;;;;5070867;28;20660;-73
2022/10/28 02:43:10;;;;;;;0.00;0.00;;;14.90;99.90;14.10;97964.00;;;;5051950;28;20235;-73
2022/10/28 02:45:43;;;;;;;0.00;0.00;;;14.80;99.90;14.10;97976.00;;;;5074936;28;20246;-75
2022/10/28 02:48:18;;;;;;;0.00;0.00;;;14.90;99.90;14.00;97964.00;;;;5071297;28;20231;-72
2022/10/28 02:50:57;;;;;;;0.00;0.00;;;14.80;99.90;14.00;97968.00;;;;5076465;28;20684;-73
2022/10/28 02:53:33;;;;;;;0.00;0.00;;;14.80;99.90;14.10;97961.00;;;;5075572;28;20316;-73
2022/10/28 02:56:06;;;;;;;0.00;0.00;;;14.80;99.90;14.10;97959.00;;;;5078955;28;20337;-73
2022/10/28 02:58:39;;;;;;;0.00;0.00;;;14.80;99.90;14.00;97960.00;;;;5073443;28;20194;-73
2022/10/28 03:01:07;;;;;;;0.00;0.00;;;14.80;99.90;14.00;97961.00;;;;5076877;28;20281;-73
2022/10/28 03:03:36;;;;;;;0.00;0.00;;;14.80;99.90;14.00;97963.00;;;;5073349;28;20202;-73
2022/10/28 03:06:06;;;;;;;0.00;0.00;;;14.80;99.90;14.00;97953.00;;;;5076744;28;20194;-73
2022/10/28 03:08:34;;;;;;;0.00;0.00;;;14.80;99.90;13.90;97966.00;;;;5081727;28;20219;-71
2022/10/28 03:11:02;;;;;;;0.00;0.00;;;14.70;99.90;13.90;97952.00;;;;5076948;28;20243;-73
2022/10/28 03:13:30;;;;;;;0.00;0.00;;;14.70;99.90;14.00;97958.00;;;;5073543;28;20272;-72
2022/10/28 03:15:58;;;;;;;0.00;0.00;;;14.70;99.90;14.00;97948.00;;;;5072635;28;20194;-71
2022/10/28 03:18:26;;;;;;;0.00;0.00;;;14.80;99.90;14.00;97950.00;;;;5072631;28;20194;-71
2022/10/28 03:20:54;;;;;;;0.00;0.00;;;14.80;99.90;14.00;97941.00;;;;5058422;28;20233;-71
2022/10/28 03:23:27;;;;;;;0.10;0.10;;;14.80;99.90;14.10;97945.00;;;;5082735;28;20193;-71
2022/10/28 03:25:55;;;;;;;0.00;0.00;;;14.80;99.90;14.10;97946.00;;;;5089609;28;20197;-74
2022/10/28 03:28:23;;;;;;;0.00;0.00;;;14.90;99.90;14.10;97940.00;;;;5071083;28;20239;-73
2022/10/28 03:30:51;;;;;;;0.00;0.00;;;14.80;99.90;14.10;97933.00;;;;5079747;28;20231;-72
2022/10/28 03:33:19;;;;;;;0.10;0.10;;;14.80;99.90;14.00;97939.00;;;;5070160;28;20660;-73
2022/10/28 03:35:48;;;;;;;0.00;0.00;;;14.80;99.90;14.00;97934.00;;;;5072820;28;20202;-72
2022/10/28 03:38:16;;;;;;;0.00;0.00;;;14.80;99.90;14.00;97935.00;;;;5072607;28;20217;-72
2022/10/28 03:40:48;;;;;;;0.00;0.00;;;14.80;99.90;14.00;97932.00;;;;5075102;28;20583;-71
2022/10/28 03:43:16;;;;;;;0.00;0.00;;;14.70;99.90;14.00;97938.00;;;;5073102;28;20231;-70
2022/10/28 03:45:44;;;;;;;0.00;0.00;;;14.70;99.90;14.00;97942.00;;;;5073959;28;20201;-71
2022/10/28 03:48:12;;;;;;;0.00;0.00;;;14.80;99.90;14.00;97927.00;;;;5082323;28;20247;-71
2022/10/28 03:50:40;;;;;;;0.00;0.00;;;14.80;99.90;14.00;97895.00;;;;5071655;28;20229;-71
2022/10/28 03:53:09;;;;;;;0.00;0.00;;;14.80;99.90;14.00;97934.00;;;;5074401;28;20201;-71
2022/10/28 03:55:37;;;;;;;0.00;0.00;;;14.70;99.90;14.00;97926.00;;;;5072263;28;20189;-71
2022/10/28 03:58:06;;;;;;;0.00;0.00;;;14.80;99.90;14.10;97931.00;;;;5072117;28;20614;-71
2022/10/28 04:00:34;;;;;;;0.00;0.00;;;14.80;99.90;14.00;97921.00;;;;5071883;28;20221;-71
2022/10/28 04:03:02;;;;;;;0.00;0.00;;;14.80;99.90;14.00;97924.00;;;;5067289;28;20194;-72
2022/10/28 04:05:30;;;;;;;0.00;0.00;;;14.80;99.90;14.00;97928.00;;;;5072187;28;20596;-73
2022/10/28 04:07:58;;;;;;;0.05;0.05;;;14.80;99.90;14.10;97926.00;;;;5073421;28;20202;-72
2022/10/28 04:10:26;;;;;;;0.00;0.00;;;14.80;99.90;14.10;97927.00;;;;5071203;28;20731;-71
2022/10/28 04:13:00;;;;;;;0.00;0.00;;;14.80;99.90;14.10;97924.00;;;;5071402;28;20201;-72
2022/10/28 04:15:30;;;;;;;0.00;0.00;;;14.90;99.90;14.20;97932.00;;;;5045971;28;20198;-70
2022/10/28 04:17:58;;;;;;;0.10;0.10;;;14.90;99.90;14.20;97943.00;;;;5078290;28;20599;-71
2022/10/28 04:20:27;;;;;;;0.00;0.00;;;14.90;99.90;14.20;97938.00;;;;5075646;28;20244;-71
2022/10/28 04:22:55;;;;;;;0.00;0.00;;;15.00;99.90;14.20;97928.00;;;;5072342;28;20537;-71
2022/10/28 04:25:26;;;;;;;0.00;0.00;;;14.90;99.90;14.20;97948.00;;;;5071211;28;20605;-72
2022/10/28 04:27:55;;;;;;;0.00;0.00;;;14.90;99.90;14.10;97927.00;;;;5072415;28;20554;-72
2022/10/28 04:30:24;;;;;;;0.00;0.00;;;14.80;99.90;14.10;97926.00;;;;5070124;28;20217;-73
2022/10/28 04:32:54;;;;;;;0.00;0.00;;;14.80;99.90;14.10;97942.00;;;;5070104;28;20209;-73
2022/10/28 04:35:22;;;;;;;0.00;0.00;;;14.80;99.90;14.10;97938.00;;;;5070690;28;20778;-73
2022/10/28 04:37:50;;;;;;;0.00;0.00;;;14.80;99.90;14.00;97948.00;;;;5073071;28;20194;-74
2022/10/28 04:40:19;;;;;;;0.00;0.00;;;14.80;99.90;14.00;97905.00;;;;5070892;28;20288;-74
2022/10/28 04:42:47;;;;;;;0.00;0.00;;;14.80;99.90;14.00;97930.00;;;;5076800;28;20262;-73
2022/10/28 04:45:15;;;;;;;0.00;0.00;;;14.70;99.90;13.90;97928.00;;;;5071797;28;20247;-73
2022/10/28 04:47:43;;;;;;;0.00;0.00;;;14.70;99.90;13.90;97937.00;;;;5079899;28;20208;-74
2022/10/28 04:50:13;;;;;;;0.00;0.00;;;14.70;99.90;13.90;97937.00;;;;5054947;28;20201;-73
2022/10/28 04:52:43;;;;;;;0.00;0.00;;;14.70;99.90;13.90;97938.00;;;;5069301;28;20224;-71
2022/10/28 04:55:11;;;;;;;0.00;0.00;;;14.70;99.90;13.90;97924.00;;;;5071378;28;20660;-71
2022/10/28 04:57:40;;;;;;;0.00;0.00;;;14.70;99.90;14.00;97934.00;;;;5074718;28;20255;-71
2022/10/28 05:00:10;;;;;;;0.00;0.00;;;14.80;99.90;14.00;97928.00;;;;5070911;28;20201;-71
2022/10/28 05:02:38;;;;;;;0.00;0.00;;;14.80;99.90;14.00;97926.00;;;;5064623;28;20698;-71
2022/10/28 05:05:14;;;;;;;0.00;0.00;;;14.70;99.90;14.00;97923.00;;;;5070842;28;20197;-72
2022/10/28 05:07:43;;;;;;;0.00;0.00;;;14.70;99.90;14.00;97923.00;;;;5032944;28;20252;-71
2022/10/28 05:10:14;;;;;;;0.00;0.00;;;14.80;99.90;14.00;97916.00;;;;5040336;28;20232;-72
2022/10/28 05:12:42;;;;;;;0.00;0.00;;;14.80;99.90;14.00;97918.00;;;;5069708;28;20481;-71
2022/10/28 05:15:13;;;;;;;0.00;0.00;;;14.70;99.90;13.90;97904.00;;;;5068490;28;20637;-71
2022/10/28 05:17:43;;;;;;;0.00;0.00;;;14.70;99.90;13.90;97905.00;;;;5070271;28;20198;-72
2022/10/28 05:20:16;;;;;;;0.00;0.00;;;14.70;99.90;13.90;97916.00;;;;5070885;28;20599;-72
2022/10/28 05:22:47;;;;;;;0.00;0.00;;;14.70;99.90;13.90;97917.00;;;;5070262;28;20266;-71
2022/10/28 05:25:16;;;;;;;0.00;0.00;;;14.70;99.90;13.80;97917.00;;;;5070762;28;20615;-72
2022/10/28 05:27:44;;;;;;;0.00;0.00;;;14.60;99.90;13.80;97928.00;;;;5072831;28;20197;-72
2022/10/28 05:30:14;;;;;;;0.00;0.00;;;14.60;99.90;13.80;97915.00;;;;5052671;28;20202;-71
2022/10/28 05:32:42;;;;;;;0.00;0.00;;;14.60;99.90;13.70;97900.00;;;;5070149;28;20600;-72
2022/10/28 05:35:11;;;;;;;0.00;0.00;;;14.50;99.90;13.70;97920.00;;;;5070455;28;20258;-72
2022/10/28 05:37:41;;;;;;;0.00;0.00;;;14.50;99.90;13.60;97944.00;;;;5071169;28;20251;-72
2022/10/28 05:40:11;;;;;;;0.00;0.00;;;14.40;99.90;13.60;97931.00;;;;5073739;28;20276;-71
2022/10/28 05:42:42;;;;;;;0.00;0.00;;;14.40;99.90;13.60;97938.00;;;;5072670;28;20229;-71
2022/10/28 05:45:11;;;;;;;0.00;0.00;;;14.30;99.90;13.50;97936.00;;;;5070748;28;20185;-72
2022/10/28 05:47:43;;;;;;;0.00;0.00;;;14.30;99.90;13.60;97943.00;;;;5053153;28;20571;-72
2022/10/28 05:50:13;;;;;;;0.00;0.00;;;14.30;99.90;13.50;97944.00;;;;5074105;28;20217;-72
2022/10/28 05:52:47;;;;;;;0.00;0.00;;;14.30;99.90;13.50;97942.00;;;;5068849;28;20220;-73
2022/10/28 05:55:18;;;;;;;0.08;0.08;;;14.30;99.90;13.50;97944.00;;;;5070751;28;20197;-73
2022/10/28 05:57:46;;;;;;;0.00;0.00;;;14.30;99.90;13.50;97946.00;;;;5068097;28;20206;-73
2022/10/28 06:00:17;;;;;;;0.00;0.00;;;14.20;99.90;13.50;97952.00;;;;5070584;28;20193;-72
2022/10/28 06:02:45;;;;;;;0.00;0.00;;;14.20;99.90;13.40;97911.00;;;;5070412;28;20217;-72
2022/10/28 06:05:14;;;;;;;0.00;0.00;;;14.20;99.90;13.40;97957.00;;;;5069039;28;20191;-72
2022/10/28 06:07:43;;;;;;;0.00;0.00;;;14.20;99.90;13.50;97977.00;;;;5064693;28;20252;-72
2022/10/28 06:10:13;;;;;;;0.00;0.00;;;14.20;99.90;13.50;97973.00;;;;5069924;28;20198;-73
2022/10/28 06:12:41;;;;;;;0.00;0.00;;;14.30;99.90;13.50;97971.00;;;;5070169;28;20198;-73
2022/10/28 06:15:10;;;;;;;0.10;0.10;;;14.30;99.90;13.50;97972.00;;;;5070250;28;20201;-72
2022/10/28 06:17:40;;;;;;;0.10;0.10;;;14.20;99.90;13.50;97974.00;;;;5068749;28;20691;-72
2022/10/28 06:20:10;;;;;;;0.00;0.00;;;14.30;99.90;13.40;97969.00;;;;5068426;28;20201;-73
2022/10/28 06:22:48;;;;;;;0.00;0.00;;;14.20;99.90;13.50;97982.00;;;;5066759;28;20221;-72
2022/10/28 06:25:21;;;;;;;0.00;0.00;;;14.30;99.90;13.50;97976.00;;;;5071270;28;20217;-72
2022/10/28 06:27:54;;;;;;;0.00;0.00;;;14.30;99.90;13.50;97975.00;;;;5072262;28;20230;-72
2022/10/28 06:30:23;;;;;;;0.00;0.00;;;14.30;99.90;13.50;97982.00;;;;5051498;28;20221;-72
2022/10/28 06:32:51;;;;;;;0.00;0.00;;;14.30;99.90;13.50;97973.00;;;;5065867;28;20189;-72
2022/10/28 06:35:19;;;;;;;0.00;0.00;;;14.30;99.90;13.60;97972.00;;;;5066527;28;20202;-72
2022/10/28 06:37:48;;;;;;;0.10;0.10;;;14.40;99.90;13.60;97979.00;;;;5070864;28;20279;-75
2022/10/28 06:40:17;;;;;;;0.00;0.00;;;14.40;99.90;13.60;97986.00;;;;5072792;28;20186;-73
2022/10/28 06:42:45;;;;;;;0.00;0.00;;;14.40;99.90;13.60;97992.00;;;;5055121;28;20217;-73
2022/10/28 06:45:14;;;;;;;0.00;0.00;;;14.40;99.90;13.70;97991.00;;;;5071555;28;20198;-74
2022/10/28 06:47:42;;;;;;;0.10;0.10;;;14.40;99.90;13.70;97992.00;;;;5072309;28;20688;-73
2022/10/28 06:50:10;;;;;;;0.00;0.00;;;14.40;99.90;13.70;97997.00;;;;5073763;28;20559;-73
2022/10/28 06:52:38;;;;;;;0.00;0.00;;;14.50;99.90;13.80;98003.00;;;;5073269;28;20260;-73
2022/10/28 06:55:07;;;;;;;0.10;0.10;;;14.50;99.90;13.50;98004.00;;;;5055897;28;20194;-75
2022/10/28 06:57:37;;;;;;;0.00;0.00;;;14.50;99.90;13.80;98002.00;;;;5073026;28;20225;-72
2022/10/28 07:00:06;;;;;;;0.00;0.00;;;14.50;99.90;13.80;98017.00;;;;5073099;28;20193;-73
2022/10/28 07:02:35;;;;;;;0.00;0.00;;;14.60;99.90;13.90;98021.00;;;;5070932;28;20205;-73
2022/10/28 07:05:04;;;;;;;0.10;0.10;;;14.60;99.90;13.90;98009.00;;;;5073336;28;20729;-72
2022/10/28 07:07:32;;;;;;;0.10;0.10;;;14.60;99.90;13.90;98028.00;;;;5077397;28;20210;-73
2022/10/28 07:10:01;;;;;;;0.10;0.10;;;14.70;99.90;13.90;97999.00;;;;5082149;28;20205;-73
2022/10/28 07:12:29;;;;;;;0.00;0.00;;;14.60;99.90;13.90;98008.00;;;;5072566;28;20236;-73
2022/10/28 07:14:58;;;;;;;0.00;0.00;;;14.60;99.90;13.90;97996.00;;;;5073211;28;20225;-72
2022/10/28 07:17:26;;;;;;;0.00;0.00;;;14.70;99.90;13.90;98003.00;;;;5072833;28;20198;-74
2022/10/28 07:19:55;;;;;;;0.00;0.00;;;14.70;99.90;14.00;98000.00;;;;5073638;28;20277;-73
2022/10/28 07:22:23;;;;;;;0.00;0.00;;;14.70;99.90;14.00;98005.00;;;;5071930;28;20271;-74
2022/10/28 07:24:53;;;;;;;0.00;0.00;;;14.80;99.90;14.10;98007.00;;;;5079758;28;20221;-73
2022/10/28 07:27:21;;;;;;;0.00;0.00;;;14.80;99.90;14.10;98015.00;;;;5072122;28;20190;-73
2022/10/28 07:29:49;;;;;;;0.00;0.00;;;14.90;99.90;14.20;98021.00;;;;5071183;28;20198;-73
2022/10/28 07:32:18;;;;;;;0.00;0.00;;;14.90;99.90;14.30;98009.00;;;;5073172;28;20217;-73
2022/10/28 07:34:46;;;;;;;0.00;0.00;;;15.00;99.90;14.30;98016.00;;;;5073026;28;20289;-73
2022/10/28 07:37:15;;;;;;;0.00;0.00;;;15.00;99.90;14.40;98029.00;;;;5070797;28;20679;-72
2022/10/28 07:39:43;;;;;;;0.10;0.10;;;15.10;99.90;14.40;98009.00;;;;5071838;28;20208;-72
2022/10/28 07:42:11;;;;;;;0.00;0.00;;;15.20;99.90;14.50;98012.00;;;;5072826;28;20221;-73
2022/10/28 07:44:39;;;;;;;0.00;0.00;;;15.20;99.90;14.60;98023.00;;;;5072327;28;20608;-73
2022/10/28 07:47:07;;;;;;;0.00;0.00;;;15.30;99.90;14.70;98016.00;;;;5073273;28;20193;-73
2022/10/28 07:49:37;;;;;;;0.00;0.00;;;15.40;99.90;14.80;98015.00;;;;5071004;28;20197;-73
2022/10/28 07:52:05;;;;;;;0.00;0.00;;;15.50;99.90;14.90;98000.00;;;;5073014;28;20237;-73
2022/10/28 07:54:33;;;;;;;0.00;0.00;;;15.60;99.90;15.00;98006.00;;;;5071255;28;20680;-73
2022/10/28 07:57:01;;;;;;;0.00;0.00;;;15.70;99.90;15.00;98031.00;;;;5071059;28;20648;-73
2022/10/28 07:59:29;;;;;;;0.00;0.00;;;15.70;99.90;15.00;97988.00;;;;5071399;28;20206;-72
2022/10/28 08:01:57;;;;;;;0.00;0.00;;;15.70;99.90;15.00;98003.00;;;;5071846;28;20862;-72
2022/10/28 08:04:28;;;;;;;0.00;0.00;;;15.70;99.90;15.00;97983.00;;;;5069018;28;20321;-73
2022/10/28 08:06:58;;;;;;;0.00;0.00;;;15.70;99.90;15.00;97998.00;;;;5053856;28;20722;-72
2022/10/28 08:09:26;;;;;;;0.00;0.00;;;15.70;99.90;15.00;98011.00;;;;5070871;28;20283;-73
2022/10/28 08:11:56;;;;;;;0.00;0.00;;;15.80;99.90;15.00;97998.00;;;;5054780;28;20225;-72
2022/10/28 08:14:27;;;;;;;0.00;0.00;;;15.70;99.90;15.10;98006.00;;;;5072463;28;20243;-73
2022/10/28 08:16:55;;;;;;;0.00;0.00;;;15.80;99.90;15.10;98011.00;;;;5062741;28;20561;-73
2022/10/28 08:19:23;;;;;;;0.00;0.00;;;15.80;99.90;15.20;97991.00;;;;5074492;28;20209;-74
2022/10/28 08:21:51;;;;;;;0.00;0.00;;;15.90;99.90;15.20;97993.00;;;;5074119;28;20263;-74
2022/10/28 08:24:20;;;;;;;0.00;0.00;;;15.90;99.90;15.20;97985.00;;;;5072232;28;20228;-74
2022/10/28 08:26:49;;;;;;;0.00;0.00;;;15.90;99.90;15.30;97990.00;;;;5069854;28;20243;-74
2022/10/28 08:29:17;;;;;;;0.10;0.10;;;15.90;99.90;15.30;97997.00;;;;5070614;28;20194;-74
2022/10/28 08:31:45;;;;;;;0.05;0.05;;;16.00;99.90;15.30;97962.00;;;;5070834;28;20213;-73
2022/10/28 08:34:14;;;;;;;0.00;0.00;;;16.00;99.90;15.30;97992.00;;;;5069161;28;20656;-74
2022/10/28 08:36:44;;;;;;;0.00;0.00;;;16.00;99.90;15.40;97985.00;;;;5072863;28;20288;-73
2022/10/28 08:39:12;;;;;;;0.00;0.00;;;16.10;99.90;15.40;97985.00;;;;5071327;28;20280;-73
2022/10/28 08:41:50;;;;;;;0.00;0.00;;;16.10;99.90;15.40;97926.00;;;;5071081;28;20221;-74
2022/10/28 08:44:54;;;;;;;0.00;0.00;;;16.10;99.90;15.40;97983.00;;;;5070696;28;20568;-74
2022/10/28 08:47:41;;;;;;;0.00;0.00;;;16.10;99.90;15.40;97996.00;;;;5070131;28;20197;-75
2022/10/28 08:50:15;;;;;;;0.10;0.10;;;16.10;99.90;15.40;97995.00;;;;5071413;28;20198;-74
2022/10/28 08:52:51;;;;;;;0.00;0.00;;;16.10;99.90;15.40;98001.00;;;;5070861;28;20314;-74
2022/10/28 08:55:25;;;;;;;0.00;0.00;;;16.10;99.90;15.40;98005.00;;;;5071811;28;20221;-74
2022/10/28 08:58:02;;;;;;;0.00;0.00;;;16.10;99.90;15.50;97969.00;;;;5067631;28;20202;-74
2022/10/28 09:00:33;;;;;;;0.00;0.00;;;16.20;99.90;15.50;97967.00;;;;5070097;28;20631;-74
2022/10/28 09:03:19;;;;;;;0.00;0.00;;;16.10;99.90;15.50;97985.00;;;;5069238;28;20589;-74
2022/10/28 09:05:53;;;;;;;0.00;0.00;;;16.20;99.90;15.60;97987.00;;;;5070088;28;20203;-74
2022/10/28 09:08:24;;;;;;;0.00;0.00;;;16.30;99.90;15.80;97981.00;;;;5069079;28;20205;-77
2022/10/28 09:11:06;;;;;;;0.00;0.00;;;16.40;99.90;15.90;97958.00;;;;5075898;28;20217;-75
2022/10/28 09:13:54;;;;;;;0.00;0.00;;;16.60;99.90;16.10;97970.00;;;;5072450;28;20193;-75
2022/10/28 09:16:40;;;;;;;0.00;0.00;;;16.80;99.90;16.20;97974.00;;;;5076032;28;20197;-77
2022/10/28 09:19:24;;;;;;;0.00;0.00;;;16.90;99.90;16.30;97977.00;;;;5060589;28;20199;-74
2022/10/28 09:22:15;;;;;;;0.00;0.00;;;17.00;99.90;16.30;97917.00;;;;5074679;28;20218;-75
2022/10/28 09:24:56;;;;;;;0.00;0.00;;;17.00;99.90;16.40;97975.00;;;;5069993;28;20221;-74
2022/10/28 09:27:46;;;;;;;0.00;0.00;;;17.00;99.90;16.50;97968.00;;;;5073983;28;20182;-75
2022/10/28 09:30:29;;;;;;;0.00;0.00;;;17.10;99.90;16.50;97953.00;;;;5071321;28;20541;-76
2022/10/28 09:33:18;;;;;;;0.00;0.00;;;17.20;99.90;16.60;97947.00;;;;5066944;28;20244;-74
2022/10/28 09:35:48;;;;;;;0.00;0.00;;;17.30;99.90;16.70;97931.00;;;;5069036;28;20275;-74
2022/10/28 09:38:27;;;;;;;0.00;0.00;;;17.30;99.90;16.80;97930.00;;;;5070487;28;20198;-74
2022/10/28 09:41:02;;;;;;;0.00;0.00;;;17.40;99.90;16.80;97904.00;;;;5070218;28;20224;-75
2022/10/28 09:43:34;;;;;;;0.00;0.00;;;17.40;99.90;16.90;97884.00;;;;5062096;28;20212;-74
2022/10/28 09:46:12;;;;;;;0.00;0.00;;;17.50;99.90;16.90;97836.00;;;;5075367;28;20197;-74
2022/10/28 09:48:45;;;;;;;0.00;0.00;;;17.50;99.90;17.00;97925.00;;;;5070581;28;20193;-74
2022/10/28 09:51:30;;;;;;;0.00;0.00;;;17.60;99.90;17.00;97891.00;;;;5070270;28;20221;-75
2022/10/28 09:54:00;;;;;;;0.00;0.00;;;17.70;99.90;17.00;97940.00;;;;5070555;28;20197;-75
2022/10/28 09:56:30;;;;;;;0.00;0.00;;;17.60;99.90;16.90;97921.00;;;;5065455;28;20543;-75
2022/10/28 09:59:02;;;;;;;0.00;0.00;;;17.50;99.90;16.80;97919.00;;;;5091978;28;20628;-74
2022/10/28 10:01:35;;;;;;;0.00;0.00;;;17.50;99.90;16.80;97945.00;;;;5071816;28;20221;-74
2022/10/28 10:04:16;;;;;;;0.00;0.00;;;17.50;99.90;16.80;97930.00;;;;5074141;28;20237;-74
2022/10/28 10:06:48;;;;;;;0.00;0.00;;;17.40;99.90;16.80;97936.00;;;;5073549;28;20197;-74
2022/10/28 10:09:23;;;;;;;0.00;0.00;;;17.40;99.90;16.80;97944.00;;;;5075679;28;20197;-74
2022/10/28 10:11:56;;;;;;;0.00;0.00;;;17.40;99.90;16.90;97949.00;;;;5072994;28;20221;-74
2022/10/28 10:14:31;;;;;;;0.00;0.00;;;17.50;99.90;16.90;97892.00;;;;5076823;28;20209;-75
2022/10/28 10:17:06;;;;;;;0.00;0.00;;;17.50;99.90;16.90;97938.00;;;;5077640;28;20656;-74
2022/10/28 10:20:01;;;;;;;0.00;0.00;;;17.60;99.90;16.90;97939.00;;;;5078953;28;20246;-75
2022/10/28 10:22:32;;;;;;;0.00;0.00;;;17.60;99.90;16.90;97948.00;;;;5084987;28;20197;-74
2022/10/28 10:25:01;;;;;;;0.00;0.00;;;17.60;99.90;17.00;97939.00;;;;5083611;28;20225;-74
2022/10/28 10:27:31;;;;;;;0.00;0.00;;;17.60;99.90;17.00;97941.00;;;;5086309;28;20190;-74
2022/10/28 10:30:00;;;;;;;0.00;0.00;;;17.70;99.90;17.10;97929.00;;;;5085768;28;20678;-75
2022/10/28 10:32:32;;;;;;;0.00;0.00;;;17.70;99.90;17.20;97943.00;;;;5066396;28;20201;-74
2022/10/28 10:35:08;;;;;;;0.00;0.00;;;17.80;99.90;17.30;97945.00;;;;5074983;28;20209;-74
2022/10/28 10:37:43;;;;;;;0.00;0.00;;;17.90;99.90;17.50;97930.00;;;;5066885;28;20205;-74
2022/10/28 10:40:24;;;;;;;0.00;0.00;;;18.00;99.90;17.50;97922.00;;;;5067478;28;20203;-74
2022/10/28 10:42:53;;;;;;;0.00;0.00;;;18.10;99.90;17.60;97910.00;;;;5056644;28;20205;-73
2022/10/28 10:45:40;;;;;;;0.00;0.00;;;18.20;99.90;17.80;97906.00;;;;5063507;28;20218;-74
2022/10/28 10:48:18;;;;;;;0.00;0.00;;;18.40;99.90;17.80;97916.00;;;;5071985;28;20209;-74
2022/10/28 10:50:49;;;;;;;0.00;0.00;;;18.40;99.90;17.90;97910.00;;;;5073935;28;20236;-74
2022/10/28 10:53:25;;;;;;;0.00;0.00;;;18.50;99.90;18.00;97932.00;;;;5073489;28;20708;-74
2022/10/28 10:55:59;;;;;;;0.00;0.00;;;18.50;99.90;18.00;97910.00;;;;5072627;28;20202;-75
2022/10/28 10:58:32;;;;;;;0.00;0.00;;;18.60;99.90;18.00;97941.00;;;;5072886;28;20664;-76
2022/10/28 11:01:04;;;;;;;0.00;0.00;;;18.60;99.90;18.10;97914.00;;;;5073726;28;20362;-74
2022/10/28 11:03:37;;;;;;;0.00;0.00;;;18.70;99.90;18.20;97904.00;;;;5073926;28;20198;-74
2022/10/28 11:06:08;;;;;;;0.00;0.00;;;18.80;99.90;18.40;97900.00;;;;5072688;28;20213;-74
2022/10/28 11:08:58;;;;;;;0.00;0.00;;;18.90;99.90;18.50;97932.00;;;;5072739;28;20200;-75
2022/10/28 11:11:35;;;;;;;0.00;0.00;;;19.00;99.90;18.60;97902.00;;;;5072689;28;20220;-74
2022/10/28 11:14:07;;;;;;;0.00;0.00;;;19.10;99.90;18.70;97894.00;;;;5073713;28;20198;-74
2022/10/28 11:16:49;;;;;;;0.00;0.00;;;19.20;99.90;18.80;97901.00;;;;5061541;28;20509;-74
2022/10/28 11:19:23;;;;;;;0.00;0.00;;;19.30;99.90;18.90;97875.00;;;;5072454;28;20197;-74
2022/10/28 11:22:13;;;;;;;0.00;0.00;;;19.40;99.90;18.90;97890.00;;;;5073256;28;20225;-74